createdAt,value
2019-02-06T00:00:46.187Z,2.70
2019-02-06T00:03:17.905Z,2.60
2019-02-06T00:05:50.998Z,2.37
2019-02-06T00:08:20.881Z,2.73
2019-02-06T00:10:52.985Z,2.50
2019-02-06T00:13:24.412Z,2.30
2019-02-06T00:15:56.486Z,2.40
2019-02-06T00:18:30.428Z,2.30
2019-02-06T00:21:00.750Z,2.47
2019-02-06T00:23:30.523Z,2.33
2019-02-06T00:26:00.159Z,2.83
2019-02-06T00:28:29.220Z,2.30
2019-02-06T00:31:02.061Z,2.57
2019-02-06T00:33:35.286Z,2.17
2019-02-06T00:36:06.091Z,2.50
2019-02-06T00:38:37.357Z,2.60
2019-02-06T00:41:09.430Z,2.30
2019-02-06T00:43:38.119Z,2.40
2019-02-06T00:46:08.561Z,2.47
2019-02-06T00:48:38.525Z,2.30
2019-02-06T00:51:08.793Z,2.40
2019-02-06T00:53:40.277Z,2.50
2019-02-06T00:56:09.502Z,2.50
2019-02-06T00:58:40.684Z,2.30
2019-02-06T01:01:11.583Z,2.57
2019-02-06T01:03:41.704Z,2.27
2019-02-06T01:06:13.000Z,2.30
2019-02-06T01:08:44.381Z,2.40
2019-02-06T01:11:14.882Z,2.43
2019-02-06T01:13:44.897Z,2.73
2019-02-06T01:16:16.494Z,2.80
2019-02-06T01:18:48.541Z,2.80
2019-02-06T01:21:19.882Z,2.47
2019-02-06T01:23:50.756Z,2.67
2019-02-06T01:26:20.068Z,2.97
2019-02-06T01:28:52.110Z,2.70
2019-02-06T01:34:26.511Z,2.50
2019-02-06T01:39:58.260Z,2.50
2019-02-06T01:42:47.002Z,2.80
2019-02-06T01:45:36.635Z,2.80
2019-02-06T01:51:37.849Z,2.73
2019-02-06T02:21:30.305Z,2.33
2019-02-06T02:51:06.012Z,2.70
2019-02-06T03:08:53.926Z,2.40
2019-02-06T03:11:24.134Z,2.80
2019-02-06T03:13:55.424Z,2.67
2019-02-06T03:16:25.409Z,3.03
2019-02-06T03:18:56.717Z,2.50
2019-02-06T03:21:26.397Z,3.03
2019-02-06T03:23:55.595Z,2.93
2019-02-06T03:26:27.593Z,2.63
2019-02-06T03:28:57.387Z,2.87
2019-02-06T03:31:28.598Z,2.83
2019-02-06T03:33:58.966Z,2.70
2019-02-06T03:36:39.934Z,2.57
2019-02-06T03:38:59.645Z,2.57
2019-02-06T03:41:32.819Z,2.60
2019-02-06T03:44:03.041Z,2.60
2019-02-06T03:46:31.702Z,2.90
2019-02-06T03:49:03.309Z,2.20
2019-02-06T03:51:37.157Z,2.60
2019-02-06T03:54:07.156Z,2.67
2019-02-06T03:56:36.829Z,2.60
2019-02-06T03:59:07.764Z,2.53
2019-02-06T04:01:37.923Z,2.50
2019-02-06T04:04:08.904Z,2.50
2019-02-06T04:06:39.214Z,2.70
2019-02-06T04:09:10.266Z,2.60
2019-02-06T04:11:40.298Z,2.63
2019-02-06T04:14:09.952Z,2.40
2019-02-06T04:16:38.358Z,2.60
2019-02-06T04:19:08.417Z,2.87
2019-02-06T04:21:39.486Z,2.37
2019-02-06T04:24:10.787Z,2.70
2019-02-06T04:26:40.581Z,2.60
2019-02-06T04:29:12.802Z,2.73
2019-02-06T04:31:43.241Z,2.53
2019-02-06T04:34:14.316Z,2.50
2019-02-06T04:36:43.092Z,3.00
2019-02-06T04:39:12.818Z,2.70
2019-02-06T04:41:44.104Z,2.73
2019-02-06T04:44:14.079Z,2.57
2019-02-06T04:46:43.637Z,2.90
2019-02-06T04:49:13.963Z,2.83
2019-02-06T04:51:43.709Z,2.77
2019-02-06T04:54:15.266Z,2.33
2019-02-06T04:56:47.052Z,2.57
2019-02-06T04:59:18.602Z,2.67
2019-02-06T05:01:50.760Z,2.23
2019-02-06T05:04:23.233Z,2.50
2019-02-06T05:06:54.031Z,2.67
2019-02-06T05:09:23.070Z,2.30
2019-02-06T05:11:54.091Z,2.30
2019-02-06T05:14:24.445Z,2.50
2019-02-06T05:16:54.441Z,2.23
2019-02-06T05:19:32.010Z,2.60
2019-02-06T05:22:09.023Z,2.77
2019-02-06T05:24:39.372Z,2.93
2019-02-06T05:27:11.584Z,2.27
2019-02-06T05:29:40.361Z,2.33
2019-02-06T05:32:10.333Z,2.63
2019-02-06T05:34:40.408Z,2.73
2019-02-06T05:37:11.824Z,2.60
2019-02-06T05:39:42.003Z,2.97
2019-02-06T05:42:13.115Z,2.40
2019-02-06T05:44:41.832Z,2.17
2019-02-06T05:47:14.000Z,2.47
2019-02-06T05:49:45.017Z,2.73
2019-02-06T05:52:15.331Z,2.60
2019-02-06T05:54:44.118Z,2.57
2019-02-06T05:57:14.471Z,2.40
2019-02-06T05:59:45.769Z,2.50
2019-02-06T06:02:17.300Z,2.30
2019-02-06T06:04:46.740Z,2.50
2019-02-06T06:07:18.833Z,2.40
2019-02-06T06:09:52.146Z,2.40
2019-02-06T06:12:21.897Z,2.50
2019-02-06T06:14:54.652Z,2.50
2019-02-06T06:17:27.841Z,2.30
2019-02-06T06:19:59.748Z,2.60
2019-02-06T06:22:30.881Z,2.20
2019-02-06T06:25:00.437Z,2.07
2019-02-06T06:27:30.417Z,2.40
2019-02-06T06:30:01.929Z,2.50
2019-02-06T06:32:32.087Z,2.70
2019-02-06T06:35:04.131Z,2.30
2019-02-06T06:37:35.891Z,2.50
2019-02-06T06:40:12.098Z,2.60
2019-02-06T06:42:43.334Z,2.37
2019-02-06T06:45:14.405Z,2.50
2019-02-06T06:56:58.787Z,2.80
2019-02-06T07:05:39.220Z,2.57
2019-02-06T07:17:14.647Z,2.50
2019-02-06T07:19:45.677Z,2.70
2019-02-06T07:22:14.341Z,2.13
2019-02-06T07:24:44.723Z,2.03
2019-02-06T07:27:16.029Z,2.30
2019-02-06T07:29:45.870Z,2.47
2019-02-06T07:32:15.793Z,2.53
2019-02-06T07:34:46.919Z,2.40
2019-02-06T07:37:16.535Z,2.37
2019-02-06T07:39:47.421Z,2.47
2019-02-06T07:42:16.106Z,2.10
2019-02-06T07:44:47.308Z,2.50
2019-02-06T07:47:17.777Z,2.27
2019-02-06T07:49:51.808Z,2.50
2019-02-06T07:52:20.226Z,2.30
2019-02-06T07:54:49.960Z,2.40
2019-02-06T07:57:18.930Z,2.27
2019-02-06T07:59:49.962Z,2.30
2019-02-06T08:02:21.649Z,2.10
2019-02-06T08:04:50.640Z,2.53
2019-02-06T08:07:22.658Z,2.50
2019-02-06T08:09:53.567Z,2.70
2019-02-06T08:12:22.673Z,3.20
2019-02-06T08:14:52.900Z,6.43
2019-02-06T08:17:22.865Z,5.90
2019-02-06T08:19:52.205Z,6.80
2019-02-06T08:22:23.501Z,5.90
2019-02-06T08:24:54.809Z,4.60
2019-02-06T08:27:26.484Z,4.70
2019-02-06T08:29:55.485Z,4.93
2019-02-06T08:32:26.395Z,4.40
2019-02-06T08:34:55.096Z,4.60
2019-02-06T08:37:25.165Z,5.10
2019-02-06T08:39:54.977Z,4.87
2019-02-06T08:42:27.333Z,4.70
2019-02-06T08:44:55.766Z,5.60
2019-02-06T08:47:27.078Z,6.30
2019-02-06T08:49:55.640Z,6.30
2019-02-06T08:52:25.567Z,6.43
2019-02-06T08:54:56.184Z,6.40
2019-02-06T08:57:25.210Z,6.57
2019-02-06T08:59:57.349Z,6.40
2019-02-06T09:02:27.217Z,6.40
2019-02-06T09:04:57.234Z,6.13
2019-02-06T09:07:25.668Z,5.93
2019-02-06T09:09:54.652Z,6.10
2019-02-06T09:12:24.960Z,6.77
2019-02-06T09:14:53.381Z,5.63
2019-02-06T09:17:21.814Z,5.00
2019-02-06T09:19:51.054Z,5.73
2019-02-06T09:22:19.508Z,5.73
2019-02-06T09:24:48.217Z,5.77
2019-02-06T09:27:18.215Z,6.53
2019-02-06T09:29:46.588Z,5.80
2019-02-06T09:32:14.996Z,5.23
2019-02-06T09:34:43.998Z,5.60
2019-02-06T09:37:12.408Z,5.87
2019-02-06T09:39:40.846Z,5.73
2019-02-06T09:42:09.256Z,5.53
2019-02-06T09:44:37.991Z,5.00
2019-02-06T09:47:06.410Z,6.20
2019-02-06T09:49:34.921Z,5.87
2019-02-06T09:52:03.336Z,5.60
2019-02-06T09:54:31.747Z,5.60
2019-02-06T09:57:00.190Z,5.10
2019-02-06T09:59:28.597Z,5.67
2019-02-06T10:01:57.237Z,5.77
2019-02-06T10:04:25.717Z,5.50
2019-02-06T10:06:54.712Z,5.73
2019-02-06T10:09:23.310Z,5.40
2019-02-06T10:11:53.381Z,5.57
2019-02-06T10:14:21.792Z,5.40
2019-02-06T10:16:50.552Z,5.27
2019-02-06T10:19:18.965Z,6.10
2019-02-06T10:21:50.353Z,4.90
2019-02-06T10:24:19.022Z,5.50
2019-02-06T10:26:47.560Z,5.70
2019-02-06T10:29:18.165Z,5.87
2019-02-06T10:31:48.296Z,5.80
2019-02-06T10:34:18.248Z,6.20
2019-02-06T10:36:49.193Z,6.10
2019-02-06T10:39:18.894Z,6.30
2019-02-06T10:41:49.157Z,6.20
2019-02-06T10:44:20.632Z,5.83
2019-02-06T10:46:51.057Z,5.63
2019-02-06T10:49:19.462Z,6.03
2019-02-06T10:51:48.826Z,5.93
2019-02-06T10:54:20.222Z,5.70
2019-02-06T10:56:50.103Z,5.47
2019-02-06T10:59:18.519Z,5.80
2019-02-06T11:01:47.507Z,5.73
2019-02-06T11:04:15.917Z,5.00
2019-02-06T11:06:46.204Z,5.47
2019-02-06T11:09:17.173Z,5.13
2019-02-06T11:11:47.254Z,5.57
2019-02-06T11:14:16.625Z,5.60
2019-02-06T11:16:46.667Z,5.87
2019-02-06T11:19:16.372Z,5.60
2019-02-06T11:21:46.566Z,5.50
2019-02-06T11:24:15.644Z,5.37
2019-02-06T11:26:44.426Z,5.23
2019-02-06T11:29:12.870Z,5.63
2019-02-06T11:31:42.348Z,5.07
2019-02-06T11:34:11.887Z,5.20
2019-02-06T11:36:41.517Z,5.27
2019-02-06T11:39:13.924Z,5.10
2019-02-06T11:41:42.584Z,5.70
2019-02-06T11:44:11.908Z,5.03
2019-02-06T11:46:40.433Z,5.20
2019-02-06T11:49:10.801Z,5.10
2019-02-06T11:51:39.216Z,5.20
2019-02-06T11:54:07.940Z,4.90
2019-02-06T11:56:36.475Z,4.93
2019-02-06T11:59:05.169Z,5.20
2019-02-06T12:01:36.105Z,5.07
2019-02-06T12:04:04.517Z,4.67
2019-02-06T12:06:34.822Z,5.00
2019-02-06T12:09:04.293Z,5.13
2019-02-06T12:11:35.296Z,4.70
2019-02-06T12:14:03.950Z,5.20
2019-02-06T12:16:32.826Z,4.97
2019-02-06T12:19:01.703Z,5.17
2019-02-06T12:21:30.859Z,4.47
2019-02-06T12:23:59.544Z,4.77
2019-02-06T12:26:29.624Z,4.30
2019-02-06T12:29:00.296Z,4.57
2019-02-06T12:31:28.838Z,4.37
2019-02-06T12:33:57.283Z,4.60
2019-02-06T12:36:25.710Z,5.03
2019-02-06T12:38:55.466Z,4.50
2019-02-06T12:41:24.162Z,4.80
2019-02-06T12:43:54.000Z,4.60
2019-02-06T12:46:22.546Z,4.70
2019-02-06T12:48:52.280Z,4.27
2019-02-06T12:51:22.102Z,4.17
2019-02-06T12:53:51.111Z,4.20
2019-02-06T12:56:19.522Z,4.90
2019-02-06T12:58:50.097Z,4.60
2019-02-06T13:01:19.794Z,4.83
2019-02-06T13:03:49.577Z,4.90
2019-02-06T13:06:19.071Z,4.77
2019-02-06T13:08:47.490Z,5.00
2019-02-06T13:11:18.025Z,5.10
2019-02-06T13:13:46.436Z,4.83
2019-02-06T13:16:15.425Z,4.80
2019-02-06T13:18:44.104Z,4.53
2019-02-06T13:21:12.536Z,4.87
2019-02-06T13:23:44.014Z,4.60
2019-02-06T13:26:15.286Z,4.80
2019-02-06T13:28:45.277Z,4.40
2019-02-06T13:31:14.009Z,4.47
2019-02-06T13:33:43.709Z,4.77
2019-02-06T13:36:12.289Z,4.63
2019-02-06T13:38:40.717Z,4.40
2019-02-06T13:41:12.062Z,4.70
2019-02-06T13:43:45.990Z,5.00
2019-02-06T13:46:14.650Z,4.53
2019-02-06T13:48:44.421Z,4.23
2019-02-06T13:51:17.655Z,4.30
2019-02-06T13:53:47.882Z,4.70
2019-02-06T13:56:16.853Z,4.47
2019-02-06T13:58:45.296Z,4.33
2019-02-06T14:01:25.274Z,4.47
2019-02-06T14:03:45.794Z,4.33
2019-02-06T14:06:15.774Z,6.17
2019-02-06T14:08:44.180Z,5.20
2019-02-06T14:11:12.688Z,5.00
2019-02-06T14:13:44.448Z,5.50
2019-02-06T14:16:13.114Z,4.83
2019-02-06T14:18:43.790Z,5.97
2019-02-06T14:21:14.984Z,8.83
2019-02-06T14:23:53.322Z,7.73
2019-02-06T14:26:29.313Z,6.53
2019-02-06T14:29:23.925Z,6.13
2019-02-06T14:31:57.452Z,5.43
2019-02-06T14:34:34.857Z,5.17
2019-02-06T14:37:36.013Z,4.40
2019-02-06T14:40:18.181Z,5.10
2019-02-06T14:43:02.874Z,4.53
2019-02-06T14:45:55.401Z,5.17
2019-02-06T14:48:35.496Z,4.67
2019-02-06T14:51:17.738Z,4.40
2019-02-06T14:54:03.033Z,4.47
2019-02-06T14:56:47.886Z,4.50
2019-02-06T14:59:29.692Z,4.23
2019-02-06T15:02:01.375Z,4.27
2019-02-06T15:04:38.733Z,4.10
2019-02-06T15:07:36.515Z,4.80
2019-02-06T15:10:22.106Z,4.33
2019-02-06T15:13:08.714Z,4.20
2019-02-06T15:15:43.315Z,3.90
2019-02-06T15:18:33.053Z,4.30
2019-02-06T15:21:16.563Z,4.03
2019-02-06T15:24:05.900Z,4.07
2019-02-06T15:26:43.473Z,3.60
2019-02-06T15:29:18.081Z,4.10
2019-02-06T15:32:08.982Z,4.20
2019-02-06T15:34:40.644Z,4.00
2019-02-06T15:37:36.573Z,4.53
2019-02-06T15:40:16.806Z,4.20
2019-02-06T15:42:51.828Z,3.93
2019-02-06T15:45:43.361Z,4.00
2019-02-06T15:48:18.454Z,4.10
2019-02-06T15:51:19.365Z,3.70
2019-02-06T15:54:10.874Z,4.43
2019-02-06T15:56:50.094Z,4.03
2019-02-06T15:59:33.761Z,4.30
2019-02-06T16:02:09.892Z,3.70
2019-02-06T16:05:01.904Z,3.83
2019-02-06T16:07:53.050Z,3.90
2019-02-06T16:10:42.956Z,3.97
2019-02-06T16:13:45.977Z,3.80
2019-02-06T16:16:27.956Z,4.03
2019-02-06T16:19:23.746Z,3.60
2019-02-06T16:22:04.557Z,3.63
2019-02-06T16:24:42.629Z,3.50
2019-02-06T16:27:14.618Z,3.93
2019-02-06T16:30:22.845Z,4.00
2019-02-06T16:33:12.569Z,5.60
2019-02-06T16:36:02.421Z,4.73
2019-02-06T16:38:40.037Z,6.63
2019-02-06T16:41:26.946Z,9.87
2019-02-06T16:44:18.028Z,7.40
2019-02-06T16:46:57.530Z,6.03
2019-02-06T16:49:32.146Z,5.77
2019-02-06T16:52:04.511Z,5.27
2019-02-06T16:54:39.978Z,5.10
2019-02-06T16:57:17.923Z,5.00
2019-02-06T17:00:08.811Z,5.03
2019-02-06T17:03:02.725Z,4.97
2019-02-06T17:05:53.223Z,4.97
2019-02-06T17:08:33.748Z,5.23
2019-02-06T17:11:21.478Z,4.87
2019-02-06T17:14:06.170Z,5.03
2019-02-06T17:16:39.609Z,5.20
2019-02-06T17:19:24.314Z,4.70
2019-02-06T17:22:09.503Z,5.40
2019-02-06T17:24:59.345Z,5.57
2019-02-06T17:27:46.101Z,5.23
2019-02-06T17:30:24.994Z,4.97
2019-02-06T17:33:11.524Z,5.20
2019-02-06T17:35:49.310Z,5.27
2019-02-06T17:38:37.237Z,4.80
2019-02-06T17:41:12.999Z,4.20
2019-02-06T17:43:51.293Z,4.63
2019-02-06T17:46:58.281Z,4.57
2019-02-06T17:49:34.721Z,5.07
2019-02-06T17:52:07.191Z,4.83
2019-02-06T17:55:01.067Z,5.03
2019-02-06T17:57:31.632Z,4.70
2019-02-06T18:00:03.328Z,4.50
2019-02-06T18:02:33.049Z,4.53
2019-02-06T18:05:03.585Z,4.57
2019-02-06T18:07:33.625Z,4.67
2019-02-06T18:10:03.447Z,4.50
2019-02-06T18:12:31.853Z,4.80
2019-02-06T18:15:03.972Z,4.97
2019-02-06T18:17:32.878Z,4.93
2019-02-06T18:20:06.824Z,5.03
2019-02-06T18:22:38.245Z,5.33
2019-02-06T18:25:11.237Z,4.90
2019-02-06T18:27:42.186Z,4.73
2019-02-06T18:30:14.256Z,5.57
2019-02-06T18:32:45.454Z,5.23
2019-02-06T18:35:18.183Z,4.83
2019-02-06T18:37:52.356Z,5.00
2019-02-06T18:40:28.146Z,5.60
2019-02-06T18:43:02.003Z,4.77
2019-02-06T18:45:33.893Z,5.30
2019-02-06T18:48:05.738Z,4.60
2019-02-06T18:50:39.229Z,4.73
2019-02-06T18:53:09.509Z,5.10
2019-02-06T18:55:41.311Z,4.93
2019-02-06T18:58:15.892Z,5.20
2019-02-06T19:00:45.109Z,6.13
2019-02-06T19:03:19.203Z,4.87
2019-02-06T19:05:50.528Z,5.17
2019-02-06T19:08:20.810Z,5.40
2019-02-06T19:10:50.636Z,5.53
2019-02-06T19:13:21.954Z,5.90
2019-02-06T19:15:56.667Z,8.37
2019-02-06T19:18:22.142Z,6.17
2019-02-06T19:20:50.552Z,5.77
2019-02-06T19:23:21.899Z,5.63
2019-02-06T19:25:52.305Z,7.57
2019-02-06T19:28:21.797Z,8.70
2019-02-06T19:30:51.404Z,6.13
2019-02-06T19:33:21.917Z,6.33
2019-02-06T19:35:52.417Z,5.73
2019-02-06T19:38:23.460Z,5.67
2019-02-06T19:40:51.996Z,5.00
2019-02-06T19:43:24.494Z,4.40
2019-02-06T19:45:53.743Z,5.00
2019-02-06T19:48:26.050Z,4.40
2019-02-06T19:50:58.165Z,4.73
2019-02-06T19:53:26.873Z,4.80
2019-02-06T19:55:55.281Z,4.87
2019-02-06T19:58:25.647Z,4.60
2019-02-06T20:00:54.309Z,4.70
2019-02-06T20:03:25.444Z,4.80
2019-02-06T20:05:53.857Z,5.10
2019-02-06T20:08:24.699Z,5.67
2019-02-06T20:10:57.789Z,4.97
2019-02-06T20:13:25.861Z,5.13
2019-02-06T20:15:54.828Z,5.10
2019-02-06T20:18:28.063Z,5.03
2019-02-06T20:21:00.232Z,4.43
2019-02-06T20:23:29.941Z,5.20
2019-02-06T20:26:00.199Z,4.90
2019-02-06T20:28:29.846Z,4.90
2019-02-06T20:30:59.031Z,4.90
2019-02-06T20:33:27.468Z,4.43
2019-02-06T20:35:55.892Z,5.00
2019-02-06T20:38:26.327Z,4.87
2019-02-06T20:40:56.619Z,4.73
2019-02-06T20:43:26.466Z,4.77
2019-02-06T20:45:57.000Z,4.53
2019-02-06T20:48:27.177Z,4.80
2019-02-06T20:50:58.326Z,4.60
2019-02-06T20:53:28.630Z,5.70
2019-02-06T20:55:57.414Z,6.23
2019-02-06T20:58:30.703Z,7.20
2019-02-06T21:01:02.975Z,6.57
2019-02-06T21:03:33.308Z,6.47
2019-02-06T21:06:03.341Z,7.93
2019-02-06T21:08:32.805Z,10.53
2019-02-06T21:11:02.525Z,8.70
2019-02-06T21:13:33.619Z,7.87
2019-02-06T21:16:04.362Z,7.23
2019-02-06T21:18:32.797Z,6.73
2019-02-06T21:21:02.034Z,6.80
2019-02-06T21:23:33.792Z,6.63
2019-02-06T21:26:02.962Z,6.13
2019-02-06T21:28:34.594Z,6.10
2019-02-06T21:31:05.349Z,6.07
2019-02-06T21:33:36.898Z,6.87
2019-02-06T21:36:06.034Z,6.03
2019-02-06T21:38:37.425Z,6.20
2019-02-06T21:41:07.431Z,5.90
2019-02-06T21:43:44.164Z,5.43
2019-02-06T21:46:17.233Z,6.20
2019-02-06T21:48:45.656Z,5.97
2019-02-06T21:51:15.089Z,5.93
2019-02-06T21:53:44.790Z,5.73
2019-02-06T21:56:16.100Z,6.37
2019-02-06T21:58:45.551Z,6.27
2019-02-06T22:01:13.993Z,6.07
2019-02-06T22:03:42.666Z,5.70
2019-02-06T22:06:13.418Z,6.20
2019-02-06T22:08:41.897Z,6.17
2019-02-06T22:11:12.928Z,5.47
2019-02-06T22:13:41.338Z,5.90
2019-02-06T22:16:10.237Z,5.60
2019-02-06T22:18:44.674Z,5.70
2019-02-06T22:21:13.133Z,5.90
2019-02-06T22:23:42.973Z,5.80
2019-02-06T22:26:11.506Z,5.60
2019-02-06T22:28:41.804Z,5.30
2019-02-06T22:31:11.981Z,6.10
2019-02-06T22:33:40.390Z,5.70
2019-02-06T22:36:08.832Z,5.67
2019-02-06T22:38:40.558Z,5.57
2019-02-06T22:41:12.128Z,5.10
2019-02-06T22:43:43.596Z,5.53
2019-02-06T22:46:13.668Z,4.40
2019-02-06T22:48:46.310Z,5.03
2019-02-06T22:51:16.461Z,4.67
2019-02-06T22:53:45.459Z,4.40
2019-02-06T22:56:16.469Z,4.90
2019-02-06T22:58:46.273Z,4.40
2019-02-06T23:01:24.670Z,4.83
2019-02-06T23:03:54.697Z,4.60
2019-02-06T23:06:23.434Z,4.80
2019-02-06T23:08:53.484Z,4.90
2019-02-06T23:11:23.573Z,4.77
2019-02-06T23:13:52.250Z,4.83
2019-02-06T23:16:24.197Z,4.50
2019-02-06T23:18:53.629Z,4.50
2019-02-06T23:21:24.056Z,4.87
2019-02-06T23:23:52.447Z,4.27
2019-02-06T23:26:22.189Z,4.60
2019-02-06T23:28:51.882Z,4.77
2019-02-06T23:31:23.248Z,4.50
2019-02-06T23:33:53.891Z,4.67
2019-02-06T23:36:26.415Z,4.93
2019-02-06T23:38:57.519Z,4.67
2019-02-06T23:41:26.453Z,3.93
2019-02-06T23:43:55.005Z,4.20
2019-02-06T23:46:25.012Z,5.17
2019-02-06T23:48:54.245Z,4.50
2019-02-06T23:51:30.342Z,4.47
2019-02-06T23:53:58.776Z,4.33
2019-02-06T23:56:27.185Z,3.90
2019-02-06T23:58:58.625Z,4.40
